createdAt,value
2019-03-20T00:00:50.773Z,11.57
2019-03-20T00:03:18.776Z,15.93
2019-03-20T00:05:46.870Z,19.40
2019-03-20T00:08:15.280Z,15.43
2019-03-20T00:10:43.616Z,15.53
2019-03-20T00:13:13.358Z,18.43
2019-03-20T00:15:41.194Z,15.37
2019-03-20T00:18:08.871Z,14.87
2019-03-20T00:20:36.528Z,15.07
2019-03-20T00:23:04.038Z,16.60
2019-03-20T00:25:33.443Z,15.13
2019-03-20T00:28:01.274Z,13.67
2019-03-20T00:30:29.578Z,18.10
2019-03-20T00:32:57.733Z,18.27
2019-03-20T00:35:25.351Z,14.57
2019-03-20T00:37:52.862Z,18.50
2019-03-20T00:40:20.759Z,16.83
2019-03-20T00:42:49.430Z,14.20
2019-03-20T00:45:17.283Z,13.27
2019-03-20T00:47:45.070Z,13.00
2019-03-20T00:50:14.151Z,15.63
2019-03-20T00:52:42.460Z,13.03
2019-03-20T00:55:10.768Z,13.30
2019-03-20T00:57:38.954Z,10.67
2019-03-20T01:00:11.004Z,12.83
2019-03-20T01:02:38.927Z,19.40
2019-03-20T01:05:12.419Z,17.30
2019-03-20T01:07:36.470Z,20.40
2019-03-20T01:10:06.595Z,15.83
2019-03-20T01:12:34.648Z,17.60
2019-03-20T01:15:02.549Z,17.77
2019-03-20T01:17:30.081Z,17.07
2019-03-20T01:19:58.019Z,15.57
2019-03-20T01:22:27.055Z,13.70
2019-03-20T01:24:55.951Z,11.77
2019-03-20T01:27:23.820Z,13.03
2019-03-20T01:29:52.263Z,15.17
2019-03-20T01:32:20.384Z,16.90
2019-03-20T01:34:48.114Z,13.00
2019-03-20T01:37:16.176Z,10.53
2019-03-20T01:39:49.737Z,14.07
2019-03-20T01:42:18.199Z,11.57
2019-03-20T01:44:46.035Z,18.73
2019-03-20T01:47:14.280Z,14.80
2019-03-20T01:49:41.709Z,13.17
2019-03-20T01:52:09.589Z,15.07
2019-03-20T01:54:37.273Z,15.10
2019-03-20T01:57:04.736Z,13.93
2019-03-20T01:59:32.429Z,14.97
2019-03-20T02:02:00.276Z,13.67
2019-03-20T02:04:27.771Z,14.90
2019-03-20T02:06:55.338Z,13.33
2019-03-20T02:09:23.175Z,13.23
2019-03-20T02:11:51.305Z,13.03
2019-03-20T02:14:19.039Z,17.17
2019-03-20T02:16:47.069Z,15.23
2019-03-20T02:19:14.949Z,12.43
2019-03-20T02:21:42.722Z,15.00
2019-03-20T02:24:10.531Z,18.63
2019-03-20T02:26:38.613Z,15.67
2019-03-20T02:29:06.770Z,14.10
2019-03-20T02:31:34.512Z,11.60
2019-03-20T02:34:01.907Z,15.80
2019-03-20T02:36:29.649Z,18.33
2019-03-20T02:38:57.814Z,17.90
2019-03-20T02:41:26.159Z,13.47
2019-03-20T02:43:53.774Z,13.10
2019-03-20T02:46:21.658Z,10.37
2019-03-20T02:48:49.755Z,15.37
2019-03-20T02:51:17.177Z,14.37
2019-03-20T02:53:44.479Z,13.33
2019-03-20T02:56:12.550Z,14.83
2019-03-20T02:58:41.042Z,12.27
2019-03-20T03:01:09.173Z,14.47
2019-03-20T03:03:37.092Z,14.43
2019-03-20T03:06:07.329Z,17.43
2019-03-20T03:08:34.929Z,16.23
2019-03-20T03:11:02.358Z,14.57
2019-03-20T03:13:30.624Z,15.07
2019-03-20T03:15:58.873Z,12.53
2019-03-20T03:18:26.316Z,19.23
2019-03-20T03:20:54.344Z,11.60
2019-03-20T03:23:22.236Z,14.20
2019-03-20T03:25:51.019Z,10.40
2019-03-20T03:28:18.819Z,11.03
2019-03-20T03:30:46.890Z,15.83
2019-03-20T03:33:14.949Z,10.47
2019-03-20T03:35:42.666Z,14.80
2019-03-20T03:38:10.597Z,11.67
2019-03-20T03:40:38.133Z,18.30
2019-03-20T03:43:05.706Z,13.67
2019-03-20T03:45:33.539Z,14.83
2019-03-20T03:48:01.613Z,14.87
2019-03-20T03:50:29.475Z,9.30
2019-03-20T03:52:57.363Z,12.53
2019-03-20T03:55:26.813Z,15.00
2019-03-20T03:57:54.450Z,10.93
2019-03-20T04:00:22.037Z,10.60
2019-03-20T04:02:50.016Z,12.20
2019-03-20T04:05:17.895Z,13.43
2019-03-20T04:07:46.595Z,14.83
2019-03-20T04:10:14.073Z,12.97
2019-03-20T04:12:41.817Z,13.37
2019-03-20T04:15:10.825Z,17.10
2019-03-20T04:17:39.212Z,16.23
2019-03-20T04:20:09.616Z,13.17
2019-03-20T04:22:37.516Z,14.60
2019-03-20T04:25:05.370Z,13.30
2019-03-20T04:27:33.406Z,15.53
2019-03-20T04:30:01.924Z,16.17
2019-03-20T04:32:29.625Z,12.13
2019-03-20T04:34:56.982Z,17.07
2019-03-20T04:37:24.446Z,15.33
2019-03-20T04:39:51.773Z,13.33
2019-03-20T04:42:19.374Z,11.57
2019-03-20T04:44:47.331Z,11.40
2019-03-20T04:47:15.140Z,15.33
2019-03-20T04:49:42.843Z,13.93
2019-03-20T04:52:10.818Z,15.47
2019-03-20T04:54:38.883Z,15.10
2019-03-20T04:57:08.744Z,11.87
2019-03-20T04:59:36.904Z,13.57
2019-03-20T05:02:05.292Z,11.90
2019-03-20T05:04:33.341Z,11.40
2019-03-20T05:07:01.128Z,15.70
2019-03-20T05:09:29.114Z,11.23
2019-03-20T05:11:56.801Z,14.10
2019-03-20T05:14:24.880Z,15.40
2019-03-20T05:16:52.159Z,11.77
2019-03-20T05:19:20.926Z,16.37
2019-03-20T05:21:59.232Z,15.77
2019-03-20T05:24:27.223Z,12.17
2019-03-20T05:26:55.384Z,13.37
2019-03-20T05:29:25.065Z,13.17
2019-03-20T05:31:52.227Z,16.30
2019-03-20T05:34:20.431Z,14.40
2019-03-20T05:36:48.134Z,15.47
2019-03-20T05:39:16.077Z,13.30
2019-03-20T05:41:43.802Z,23.97
2019-03-20T05:44:11.583Z,15.00
2019-03-20T05:46:40.537Z,13.57
2019-03-20T05:49:07.929Z,14.17
2019-03-20T05:51:35.449Z,18.33
2019-03-20T05:54:03.650Z,12.10
2019-03-20T05:56:32.153Z,72.90
2019-03-20T05:59:01.076Z,12.50
2019-03-20T06:01:28.547Z,16.80
2019-03-20T06:03:58.802Z,10.07
2019-03-20T06:06:27.236Z,16.70
2019-03-20T06:08:55.776Z,14.67
2019-03-20T06:11:23.233Z,12.27
2019-03-20T06:13:51.354Z,14.00
2019-03-20T06:16:18.975Z,12.77
2019-03-20T06:18:47.281Z,15.47
2019-03-20T06:21:15.159Z,14.67
2019-03-20T06:23:42.930Z,12.77
2019-03-20T06:26:10.566Z,14.67
2019-03-20T06:28:37.960Z,15.40
2019-03-20T06:31:05.451Z,10.50
2019-03-20T06:33:33.423Z,16.57
2019-03-20T06:36:01.140Z,18.10
2019-03-20T06:38:28.700Z,19.47
2019-03-20T06:40:57.740Z,21.83
2019-03-20T06:43:25.011Z,20.10
2019-03-20T06:45:52.572Z,24.43
2019-03-20T06:48:20.816Z,26.03
2019-03-20T06:50:48.377Z,25.43
2019-03-20T06:53:16.209Z,23.67
2019-03-20T06:55:44.038Z,19.20
2019-03-20T06:58:11.190Z,22.93
2019-03-20T07:00:51.024Z,15.33
2019-03-20T07:03:35.158Z,22.77
2019-03-20T07:06:34.093Z,20.27
2019-03-20T07:09:23.996Z,18.33
2019-03-20T07:11:52.191Z,26.97
2019-03-20T07:14:19.621Z,24.03
2019-03-20T07:16:47.526Z,30.33
2019-03-20T07:19:15.096Z,34.63
2019-03-20T07:21:42.575Z,33.67
2019-03-20T07:24:09.929Z,36.90
2019-03-20T07:26:37.542Z,35.63
2019-03-20T07:29:04.815Z,31.07
2019-03-20T07:31:32.344Z,31.00
2019-03-20T07:34:00.136Z,30.57
2019-03-20T07:36:28.512Z,39.17
2019-03-20T07:38:56.642Z,27.47
2019-03-20T07:41:24.172Z,23.63
2019-03-20T07:43:51.773Z,28.70
2019-03-20T07:46:20.161Z,17.20
2019-03-20T07:48:50.583Z,11.57
2019-03-20T07:51:17.990Z,10.93
2019-03-20T07:53:45.471Z,12.37
2019-03-20T07:56:13.822Z,9.77
2019-03-20T07:58:43.461Z,12.83
2019-03-20T08:01:10.759Z,9.73
2019-03-20T08:03:38.365Z,11.50
2019-03-20T08:06:05.807Z,9.00
2019-03-20T08:08:33.403Z,14.60
2019-03-20T08:11:00.829Z,13.37
2019-03-20T08:13:28.851Z,11.77
2019-03-20T08:15:56.983Z,9.50
2019-03-20T08:18:25.668Z,11.67
2019-03-20T08:20:53.301Z,7.60
2019-03-20T08:23:20.599Z,11.00
2019-03-20T08:25:48.266Z,11.43
2019-03-20T08:28:18.388Z,11.90
2019-03-20T08:30:46.811Z,8.40
2019-03-20T08:33:14.490Z,10.43
2019-03-20T08:35:42.313Z,7.80
2019-03-20T08:38:18.344Z,11.03
2019-03-20T08:40:40.078Z,9.73
2019-03-20T08:43:07.447Z,10.60
2019-03-20T08:45:34.880Z,9.37
2019-03-20T08:48:03.226Z,12.07
2019-03-20T08:50:32.044Z,7.73
2019-03-20T08:52:59.615Z,10.03
2019-03-20T08:55:27.436Z,7.07
2019-03-20T08:57:54.823Z,7.33
2019-03-20T09:00:22.641Z,10.00
2019-03-20T09:02:50.503Z,10.80
2019-03-20T09:05:21.516Z,7.80
2019-03-20T09:07:49.566Z,10.23
2019-03-20T09:10:18.642Z,14.20
2019-03-20T09:12:46.403Z,10.73
2019-03-20T09:15:15.128Z,14.23
2019-03-20T09:17:42.949Z,9.73
2019-03-20T09:20:12.788Z,11.73
2019-03-20T09:22:40.790Z,11.33
2019-03-20T09:25:11.168Z,10.70
2019-03-20T09:27:38.865Z,8.20
2019-03-20T09:30:13.944Z,9.90
2019-03-20T09:32:42.003Z,10.77
2019-03-20T09:35:09.933Z,11.43
2019-03-20T09:37:37.900Z,8.10
2019-03-20T09:40:07.032Z,9.37
2019-03-20T09:42:34.900Z,9.17
2019-03-20T09:45:03.337Z,10.47
2019-03-20T09:47:30.835Z,10.30
2019-03-20T09:49:58.167Z,14.93
2019-03-20T09:52:25.966Z,9.90
2019-03-20T09:54:55.412Z,10.57
2019-03-20T09:57:23.338Z,9.53
2019-03-20T09:59:50.924Z,14.63
2019-03-20T10:02:18.213Z,10.63
2019-03-20T10:04:45.512Z,11.53
2019-03-20T10:07:13.545Z,9.10
2019-03-20T10:09:41.481Z,8.60
2019-03-20T10:12:08.960Z,12.77
2019-03-20T10:14:36.946Z,8.73
2019-03-20T10:17:04.466Z,8.07
2019-03-20T10:19:32.339Z,8.93
2019-03-20T10:21:59.789Z,15.10
2019-03-20T10:24:27.488Z,11.13
2019-03-20T10:26:55.473Z,13.07
2019-03-20T10:29:22.855Z,9.17
2019-03-20T10:31:50.730Z,11.77
2019-03-20T10:34:18.627Z,9.30
2019-03-20T10:36:46.171Z,10.27
2019-03-20T10:39:14.022Z,10.77
2019-03-20T10:41:42.003Z,9.17
2019-03-20T10:44:09.861Z,9.27
2019-03-20T10:46:37.741Z,10.90
2019-03-20T10:49:06.007Z,9.83
2019-03-20T10:51:33.530Z,10.40
2019-03-20T10:54:00.792Z,11.47
2019-03-20T10:56:28.920Z,11.43
2019-03-20T10:58:56.802Z,12.50
2019-03-20T11:01:24.527Z,9.17
2019-03-20T11:03:52.299Z,9.07
2019-03-20T11:06:19.776Z,8.73
2019-03-20T11:08:47.356Z,8.40
2019-03-20T11:11:26.601Z,8.30
2019-03-20T11:13:45.494Z,5.83
2019-03-20T11:16:12.919Z,11.27
2019-03-20T11:18:41.107Z,7.17
2019-03-20T11:21:08.806Z,5.47
2019-03-20T11:23:36.116Z,6.50
2019-03-20T11:26:03.531Z,5.83
2019-03-20T11:28:31.268Z,5.57
2019-03-20T11:30:59.386Z,10.07
2019-03-20T11:33:27.974Z,8.57
2019-03-20T11:35:57.242Z,6.90
2019-03-20T11:38:26.482Z,6.97
2019-03-20T11:40:54.400Z,6.30
2019-03-20T11:43:21.995Z,6.13
2019-03-20T11:45:49.389Z,5.20
2019-03-20T11:48:21.498Z,6.10
2019-03-20T11:50:49.897Z,7.77
2019-03-20T11:53:17.747Z,6.23
2019-03-20T11:55:45.901Z,5.53
2019-03-20T11:58:14.796Z,6.43
2019-03-20T12:00:42.748Z,6.73
2019-03-20T12:03:10.451Z,5.47
2019-03-20T12:05:38.366Z,5.77
2019-03-20T12:08:06.026Z,7.77
2019-03-20T12:10:33.905Z,9.77
2019-03-20T12:13:01.896Z,6.13
2019-03-20T12:15:29.319Z,5.83
2019-03-20T12:17:57.693Z,6.60
2019-03-20T12:20:25.597Z,5.70
2019-03-20T12:22:53.274Z,4.30
2019-03-20T12:25:24.040Z,5.80
2019-03-20T12:27:51.450Z,5.60
2019-03-20T12:30:22.053Z,6.03
2019-03-20T12:32:49.688Z,7.17
2019-03-20T12:35:17.866Z,6.67
2019-03-20T12:37:45.491Z,7.97
2019-03-20T12:40:25.562Z,5.80
2019-03-20T12:42:53.662Z,5.40
2019-03-20T12:45:24.520Z,5.60
2019-03-20T12:47:52.097Z,4.80
2019-03-20T12:50:19.897Z,6.10
2019-03-20T12:52:50.686Z,6.70
2019-03-20T12:55:18.568Z,6.73
2019-03-20T12:57:46.803Z,7.53
2019-03-20T13:00:17.273Z,5.53
2019-03-20T13:02:44.977Z,7.07
2019-03-20T13:05:13.967Z,4.80
2019-03-20T13:07:41.620Z,4.70
2019-03-20T13:10:12.125Z,5.90
2019-03-20T13:12:39.464Z,3.93
2019-03-20T13:15:10.200Z,9.30
2019-03-20T13:17:38.512Z,5.13
2019-03-20T13:20:07.136Z,3.33
2019-03-20T13:22:34.909Z,5.10
2019-03-20T13:25:03.799Z,4.87
2019-03-20T13:27:33.797Z,4.73
2019-03-20T13:30:01.149Z,3.27
2019-03-20T13:32:28.521Z,5.50
2019-03-20T13:34:56.205Z,4.57
2019-03-20T13:37:24.134Z,5.07
2019-03-20T13:39:51.961Z,3.67
2019-03-20T13:42:19.644Z,5.60
2019-03-20T13:44:47.207Z,8.17
2019-03-20T13:47:15.475Z,3.73
2019-03-20T13:49:43.595Z,5.97
2019-03-20T13:52:11.272Z,4.23
2019-03-20T13:54:38.950Z,6.30
2019-03-20T13:57:06.922Z,4.57
2019-03-20T13:59:34.792Z,4.77
2019-03-20T14:02:02.158Z,4.70
2019-03-20T14:04:29.964Z,4.50
2019-03-20T14:06:57.633Z,3.63
2019-03-20T14:09:25.440Z,4.27
2019-03-20T14:11:52.882Z,3.33
2019-03-20T14:14:20.427Z,6.40
2019-03-20T14:16:48.413Z,6.07
2019-03-20T14:19:15.987Z,6.33
2019-03-20T14:21:44.020Z,5.60
2019-03-20T14:24:11.418Z,2.83
2019-03-20T14:26:39.663Z,4.37
2019-03-20T14:29:07.074Z,4.97
2019-03-20T14:31:34.994Z,4.30
2019-03-20T14:34:02.668Z,7.67
2019-03-20T14:36:31.557Z,6.97
2019-03-20T14:38:59.630Z,4.97
2019-03-20T14:41:27.299Z,6.47
2019-03-20T14:43:54.892Z,3.63
2019-03-20T14:46:22.568Z,4.10
2019-03-20T14:48:50.370Z,6.20
2019-03-20T14:51:18.172Z,6.30
2019-03-20T14:53:45.492Z,7.57
2019-03-20T14:56:12.987Z,8.27
2019-03-20T14:58:40.824Z,6.37
2019-03-20T15:01:08.688Z,6.77
2019-03-20T15:03:37.029Z,4.83
2019-03-20T15:06:04.942Z,5.67
2019-03-20T15:08:32.881Z,7.70
2019-03-20T15:11:00.799Z,7.23
2019-03-20T15:13:35.694Z,5.57
2019-03-20T15:16:09.178Z,6.83
2019-03-20T15:18:37.740Z,5.00
2019-03-20T15:21:05.572Z,6.20
2019-03-20T15:23:36.245Z,5.63
2019-03-20T15:26:04.827Z,5.40
2019-03-20T15:28:32.566Z,3.50
2019-03-20T15:31:00.790Z,7.17
2019-03-20T15:33:28.141Z,6.20
2019-03-20T15:35:55.981Z,4.90
2019-03-20T15:38:23.694Z,5.53
2019-03-20T15:40:56.155Z,5.20
2019-03-20T15:43:21.423Z,6.97
2019-03-20T15:45:49.680Z,7.70
2019-03-20T15:48:17.984Z,4.67
2019-03-20T15:51:04.713Z,6.63
2019-03-20T15:53:49.962Z,8.70
2019-03-20T15:56:28.611Z,5.17
2019-03-20T15:59:17.947Z,7.30
2019-03-20T16:02:07.594Z,7.47
2019-03-20T16:04:53.266Z,6.27
2019-03-20T16:07:34.035Z,4.07
2019-03-20T16:10:21.044Z,7.43
2019-03-20T16:12:51.485Z,5.43
2019-03-20T16:15:19.633Z,6.63
2019-03-20T16:17:47.316Z,5.83
2019-03-20T16:20:15.798Z,6.20
2019-03-20T16:22:43.716Z,7.53
2019-03-20T16:25:12.597Z,7.10
2019-03-20T16:27:40.655Z,4.40
2019-03-20T16:30:12.681Z,9.03
2019-03-20T16:32:40.495Z,6.07
2019-03-20T16:35:08.945Z,7.03
2019-03-20T16:37:36.843Z,6.50
2019-03-20T16:40:07.435Z,9.60
2019-03-20T16:42:35.553Z,10.13
2019-03-20T16:45:04.948Z,4.87
2019-03-20T16:47:33.115Z,4.13
2019-03-20T16:50:00.535Z,6.33
2019-03-20T16:52:28.582Z,7.70
2019-03-20T16:54:56.177Z,4.43
2019-03-20T16:57:24.203Z,5.80
2019-03-20T16:59:52.547Z,6.60
2019-03-20T17:02:20.887Z,8.10
2019-03-20T17:04:48.696Z,7.10
2019-03-20T17:07:16.154Z,9.93
2019-03-20T17:09:44.577Z,4.53
2019-03-20T17:12:12.206Z,11.37
2019-03-20T17:14:41.776Z,6.37
2019-03-20T17:17:09.511Z,5.37
2019-03-20T17:19:37.292Z,4.50
2019-03-20T17:22:05.257Z,10.30
2019-03-20T17:24:33.327Z,11.33
2019-03-20T17:27:01.136Z,13.00
2019-03-20T17:29:29.530Z,12.37
2019-03-20T17:31:57.649Z,10.60
2019-03-20T17:34:24.909Z,14.70
2019-03-20T17:36:52.908Z,9.80
2019-03-20T17:39:20.948Z,11.77
2019-03-20T17:41:48.828Z,14.47
2019-03-20T17:44:16.423Z,9.13
2019-03-20T17:46:44.742Z,7.00
2019-03-20T17:49:12.270Z,4.27
2019-03-20T17:51:39.714Z,9.00
2019-03-20T17:54:07.213Z,7.10
2019-03-20T17:56:35.517Z,7.27
2019-03-20T17:59:03.190Z,7.37
2019-03-20T18:01:30.880Z,7.27
2019-03-20T18:03:58.194Z,3.63
2019-03-20T18:06:25.767Z,8.77
2019-03-20T18:08:54.159Z,8.57
2019-03-20T18:11:21.728Z,9.77
2019-03-20T18:13:49.460Z,10.10
2019-03-20T18:16:17.430Z,8.70
2019-03-20T18:18:44.963Z,8.67
2019-03-20T18:21:12.647Z,10.10
2019-03-20T18:23:40.755Z,10.37
2019-03-20T18:26:08.351Z,13.13
2019-03-20T18:28:35.649Z,12.97
2019-03-20T18:31:03.891Z,10.53
2019-03-20T18:33:31.304Z,5.50
2019-03-20T18:35:59.422Z,10.93
2019-03-20T18:38:26.893Z,8.10
2019-03-20T18:40:54.174Z,9.07
2019-03-20T18:43:21.531Z,5.87
2019-03-20T18:45:49.689Z,9.20
2019-03-20T18:48:17.975Z,7.93
2019-03-20T18:50:45.616Z,8.73
2019-03-20T18:53:13.581Z,9.27
2019-03-20T18:55:41.132Z,7.10
2019-03-20T18:58:08.658Z,6.37
2019-03-20T19:00:37.310Z,9.53
2019-03-20T19:03:05.522Z,8.07
2019-03-20T19:05:44.547Z,8.67
2019-03-20T19:08:13.128Z,8.30
2019-03-20T19:10:40.884Z,13.87
2019-03-20T19:13:08.765Z,11.63
2019-03-20T19:15:36.580Z,10.70
2019-03-20T19:18:04.522Z,16.80
2019-03-20T19:20:32.657Z,11.67
2019-03-20T19:23:00.650Z,11.97
2019-03-20T19:25:28.741Z,15.17
2019-03-20T19:27:56.238Z,9.10
2019-03-20T19:30:24.038Z,13.17
2019-03-20T19:32:52.417Z,13.40
2019-03-20T19:35:20.471Z,11.00
2019-03-20T19:37:48.207Z,18.50
2019-03-20T19:40:16.040Z,10.67
2019-03-20T19:42:43.714Z,6.27
2019-03-20T19:45:12.016Z,11.17
2019-03-20T19:47:40.064Z,14.27
2019-03-20T19:50:10.842Z,13.60
2019-03-20T19:52:38.692Z,13.67
2019-03-20T19:55:06.903Z,16.63
2019-03-20T19:57:35.213Z,17.30
2019-03-20T20:00:03.933Z,18.87
2019-03-20T20:02:32.057Z,16.83
2019-03-20T20:04:59.699Z,13.07
2019-03-20T20:07:27.589Z,17.03
2019-03-20T20:09:57.646Z,12.13
2019-03-20T20:12:31.300Z,14.33
2019-03-20T20:14:54.966Z,11.90
2019-03-20T20:17:22.456Z,12.87
2019-03-20T20:19:50.019Z,16.20
2019-03-20T20:22:18.100Z,12.57
2019-03-20T20:24:46.874Z,9.50
2019-03-20T20:27:14.402Z,11.07
2019-03-20T20:29:42.315Z,9.03
2019-03-20T20:32:10.818Z,10.40
2019-03-20T20:34:38.940Z,9.98
2019-03-20T20:37:07.173Z,13.70
2019-03-20T20:39:35.317Z,18.30
2019-03-20T20:42:03.126Z,25.07
2019-03-20T20:44:31.105Z,15.03
2019-03-20T20:46:58.971Z,15.60
2019-03-20T20:49:26.279Z,11.80
2019-03-20T20:51:54.033Z,16.07
2019-03-20T20:54:22.554Z,17.83
2019-03-20T20:56:49.902Z,13.43
2019-03-20T20:59:17.310Z,23.37
2019-03-20T21:01:45.530Z,17.70
2019-03-20T21:04:13.298Z,21.23
2019-03-20T21:06:41.128Z,18.93
2019-03-20T21:09:08.556Z,20.70
2019-03-20T21:11:36.324Z,20.33
2019-03-20T21:14:03.912Z,15.73
2019-03-20T21:16:32.181Z,16.87
2019-03-20T21:19:35.005Z,15.27
2019-03-20T21:22:59.838Z,12.70
2019-03-20T21:25:28.337Z,16.97
2019-03-20T21:28:58.488Z,13.37
2019-03-20T21:31:49.173Z,15.70
2019-03-20T21:35:35.399Z,14.97
2019-03-20T21:38:09.674Z,21.43
2019-03-20T21:41:35.215Z,13.67
2019-03-20T21:45:18.826Z,16.77
2019-03-20T21:47:53.713Z,10.70
2019-03-20T21:51:08.035Z,19.17
2019-03-20T21:54:40.805Z,16.80
2019-03-20T21:58:08.791Z,17.40
2019-03-20T22:01:51.307Z,17.00
2019-03-20T22:04:20.453Z,15.17
2019-03-20T22:07:08.419Z,11.33
2019-03-20T22:10:33.064Z,13.87
2019-03-20T22:13:59.553Z,13.00
2019-03-20T22:17:50.258Z,14.80
2019-03-20T22:20:53.681Z,17.37
2019-03-20T22:24:23.556Z,14.03
2019-03-20T22:27:34.837Z,15.23
2019-03-20T22:30:05.186Z,15.57
2019-03-20T22:33:45.376Z,12.40
2019-03-20T22:36:25.621Z,14.53
2019-03-20T22:39:59.921Z,11.97
2019-03-20T22:42:53.702Z,11.37
2019-03-20T22:46:32.012Z,17.87
2019-03-20T22:50:00.949Z,12.27
2019-03-20T22:53:33.042Z,16.00
2019-03-20T22:57:01.256Z,20.97
2019-03-20T22:59:30.218Z,13.37
2019-03-20T23:02:13.499Z,13.23
2019-03-20T23:04:49.620Z,13.03
2019-03-20T23:07:22.067Z,15.90
2019-03-20T23:09:50.771Z,13.87
2019-03-20T23:12:19.894Z,15.60
2019-03-20T23:14:48.847Z,14.30
2019-03-20T23:17:18.136Z,11.03
2019-03-20T23:19:48.003Z,13.57
2019-03-20T23:22:19.424Z,13.90
2019-03-20T23:24:48.249Z,14.13
2019-03-20T23:27:27.350Z,13.97
2019-03-20T23:29:55.798Z,11.20
2019-03-20T23:32:24.602Z,17.40
2019-03-20T23:34:54.155Z,14.93
2019-03-20T23:37:23.779Z,9.90
2019-03-20T23:39:52.555Z,12.13
2019-03-20T23:42:23.346Z,13.23
2019-03-20T23:44:52.446Z,15.13
2019-03-20T23:47:42.006Z,14.13
2019-03-20T23:50:11.137Z,14.87
2019-03-20T23:52:39.395Z,13.13
2019-03-20T23:55:09.637Z,14.53
2019-03-20T23:57:37.991Z,15.33
